CKV8 weather

Kentville (Valley Regional Hospital) Heliport
Kentville, Nova Scotia, Canada

Public forecast

Using degrees Celsius for public forecast. Weather courtesy of forecast.io.

METAR (pilot weather report)

Closest report is CFB Greenwood, 18.6 nm (34.5 km) WSW. Retrieved 2019/08/21 19:00 UTC (35 minutes ago):

CYZX 211900Z 30005KT 15SM FEW160 BKN250 28/18 A2997 RMK AC2CI3 SLP147

TAF (pilot weather forecast)

Closest forecast is CFB Greenwood, 18.6 nm (34.5 km) WSW. Retrieved 2019/08/21 18:33 UTC (1 hour ago):

TAF CYZX 211730Z 2118/2218 29008KT P6SM BKN250 BECMG 2200/2202 VRB03KT SCT100 BKN220 FM220300 23005KT P6SM BKN080 OVC200 FM220600 24008KT P6SM -SHRA OVC020 TEMPO 2206/2210 4SM -SHRA BR OVC012 PROB30 2206/2210 3SM TSRA BR OVC015CB FM221000 23008KT 6SM -SHRA BR OVC010 PROB30 2210/2212 4SM BR OVC006 FM221200 23008KT P6SM BKN020 FM221600 23012G22KT P6SM SCT040 RMK NXT FCST BY 220000Z